Terminal Aerodrome Forecast
Issued by NWS

Home | Current Version | Previous Version | Text Only | Print | Product List | Glossary On
Versions: 1 2 3 4 5 6 7 8 9 10 11 12 13 14 15 16 17 18 19 20 21 22 23 24 25 26 27 28 29 30 31 32 33 34 35 36 37 38 39 40 41 42
000
FTUS43 KLOT 230900 AAC
TAFORD
TAF AMD
KORD 230924Z 2309/2412 04003KT 2SM BR OVC002
     FM231400 10006KT 6SM BR SCT005 BKN200
     FM231800 08008KT P6SM BKN040
     FM240200 07005KT 6SM BR BKN250=

USA.gov is the U.S. government's official web portal to all federal, state and local government web resources and services.